WEATHER DATA

YESTERDAY
Time Temp. Dewp. Hum. Wind dir Wind speed Wind gust Bar. 1h Prec. 24h Prec.
00:08 1.2 0.2 93 137 1.9 3.3 1026.7 0.0000 0.0000
00:17 1.1 0.1 93 128 1.4 2.5 1026.6 0.0000 0.0000
00:28 1.1 0.1 93 127 1.7 3.1 1026.6 0.0000 0.0000
00:38 1 0 93 112 0.6 1.7 1026.5 0.0000 0.0000
00:58 1 -0.1 92 139 1.7 2.8 1026.5 0.0000 0.0000
01:08 0.9 -0.2 92 135 1.7 3.1 1026.5 0.0000 0.0000
01:18 0.8 -0.3 92 140 1.7 2.5 1026.5 0.0000 0.0000
01:28 0.7 -0.5 91 129 1.7 3.1 1026.3 0.0000 0.0000
01:39 0.7 -0.5 91 126 1.4 2.2 1026.3 0.0000 0.0000
01:48 0.6 -0.9 89 134 1.4 2.2 1026.3 0.0000 0.0000
01:58 0.7 -0.9 88 135 1.7 2.2 1026.3 0.0000 0.0000
02:09 0.8 -1 87 129 1.7 2.5 1026.3 0.0000 0.0000
02:19 0.8 -1.1 86 131 1.7 2.8 1026.3 0.0000 0.0000
02:29 0.8 -1.4 84 135 2.2 3.3 1026.2 0.0000 0.0000
02:39 0.8 -1.4 84 130 1.9 2.8 1026.2 0.0000 0.0000
02:49 0.8 -1.4 84 131 1.4 2.5 1026.2 0.0000 0.0000
02:59 0.8 -1.5 83 132 2.5 3.3 1026.2 0.0000 0.0000
03:09 0.7 -1.5 84 90 0.6 1.7 1026.3 0.0000 0.0000
03:19 0.6 -1.7 83 133 1.9 3.1 1026.3 0.0000 0.0000
03:29 0.7 -1.8 82 132 1.7 2.8 1026.2 0.0000 0.0000
03:39 0.7 -1.8 82 134 2.2 3.9 1026 0.0000 0.0000
03:49 0.7 -1.9 81 129 1.7 3.6 1025.9 0.0000 0.0000
04:00 0.7 -1.9 81 132 2.2 3.6 1025.9 0.0000 0.0000
04:10 0.6 -2 81 159 1.4 1.9 1025.8 0.0000 0.0000
04:19 0.7 -2.2 79 135 2.2 3.6 1025.7 0.0000 0.0000
04:29 0.9 -2.2 78 134 1.9 3.1 1025.7 0.0000 0.0000
04:40 0.7 -2.2 79 132 1.4 2.8 1025.8 0.0000 0.0000
04:50 0.7 -2.4 78 139 1.7 2.8 1025.7 0.0000 0.0000
04:59 0.8 -2.3 78 129 1.4 2.5 1025.8 0.0000 0.0000
05:10 0.9 -2.4 77 128 1.7 2.2 1025.8 0.0000 0.0000
05:20 0.8 -2.4 77 131 1.4 2.5 1025.9 0.0000 0.0000
05:30 0.8 -2.6 76 122 1.1 1.9 1025.9 0.0000 0.0000
05:40 0.7 -2.7 76 135 1.9 3.1 1026 0.0000 0.0000
05:50 0.7 -2.7 76 134 1.7 3.1 1026.1 0.0000 0.0000
06:00 0.8 -2.8 75 129 1.4 2.2 1026.2 0.0000 0.0000
06:10 0.9 -3 73 136 1.9 2.8 1026.2 0.0000 0.0000
06:21 1 -2.9 73 132 2.2 3.3 1026.1 0.0000 0.0000
06:31 0.9 -2.8 74 135 2.2 3.3 1026.1 0.0000 0.0000
06:40 0.7 -2.8 75 134 1.9 3.1 1026.1 0.0000 0.0000
06:50 0.7 -2.8 75 139 2.2 3.6 1026.1 0.0000 0.0000
07:01 0.8 -3.1 73 136 2.5 3.9 1026 0.0000 0.0000
07:11 0.8 -2.9 74 154 1.4 3.1 1026.1 0.0000 0.0000
07:21 0.8 -3.1 73 138 1.9 3.6 1026 0.0000 0.0000
07:31 0.8 -2.8 75 129 1.7 2.2 1026.1 0.0000 0.0000
07:41 0.5 -2.9 76 121 0.6 1.7 1026.2 0.0000 0.0000
07:51 0.5 -3 75 132 0.6 1.4 1026.3 0.0000 0.0000
08:01 0.5 -3 75 124 1.4 2.2 1026.3 0.0000 0.0000
08:12 0.7 -2.8 75 132 2.2 3.6 1026.3 0.0000 0.0000
08:21 0.7 -3 74 135 2.2 3.9 1026.6 0.0000 0.0000
08:31 0.7 -3.2 73 112 0.6 1.4 1026.7 0.0000 0.0000
08:42 0.7 -3 74 135 2.2 3.1 1026.8 0.0000 0.0000
08:52 0.7 -3 74 135 1.9 3.3 1026.9 0.0000 0.0000
09:02 0.9 -3 73 153 1.7 3.9 1027 0.0000 0.0000
09:11 1 -2.9 73 146 1.4 3.1 1027 0.0000 0.0000
09:22 1.3 -2.8 72 135 1.9 4.2 1027 0.0000 0.0000
09:32 1.8 -3.1 68 139 1.4 3.1 1027.1 0.0000 0.0000
09:42 2.1 -3 67 111 0.6 1.1 1027.2 0.0000 0.0000
09:52 2.5 -2.7 67 147 1.4 3.1 1027.2 0.0000 0.0000
10:02 2.9 -2.3 67 128 1.4 2.2 1027.2 0.0000 0.0000
10:12 3 -2.4 66 90 0.6 1.1 1027.2 0.0000 0.0000
10:22 3.2 -2.2 66 90 0.3 0.6 1027.2 0.0000 0.0000
10:33 3.5 -2.5 63 60 0.3 0.6 1027.2 0.0000 0.0000
10:42 3.8 -1.6 67 90 0.6 0.8 1027.2 0.0000 0.0000
10:52 4 -1.6 66 90 0.6 1.1 1027.2 0.0000 0.0000
11:03 4.4 -1 67 141 0.6 1.4 1027.1 0.0000 0.0000
11:13 4.6 -2 61 174 0.8 1.1 1027.1 0.0000 0.0000
11:23 5 -1.3 63 126 0.6 1.1 1027.1 0.0000 0.0000
11:32 5.3 -1.4 61 90 0.6 1.1 1027 0.0000 0.0000
11:43 5.6 -0.8 63 90 0.8 1.1 1027.1 0.0000 0.0000
11:53 5.9 -0.9 61 90 0.8 1.4 1027 0.0000 0.0000
12:03 6.3 -1.4 57 59 0.6 1.1 1027 0.0000 0.0000
12:13 6.6 -1.6 55 55 0.8 1.1 1027 0.0000 0.0000
12:23 6.8 -1.6 54 62 0.8 1.1 1027 0.0000 0.0000
12:33 7.1 -1.4 54 68 0.8 1.1 1027 0.0000 0.0000
12:43 7.4 -1.6 52 62 0.8 1.4 1026.9 0.0000 0.0000
12:54 7.5 -1.5 52 58 0.6 1.1 1026.9 0.0000 0.0000
13:04 7.6 -1.9 50 52 0.8 1.1 1026.9 0.0000 0.0000
13:13 7.7 -1.6 51 55 0.8 1.4 1026.9 0.0000 0.0000
13:24 8 -1.3 51 56 0.8 1.7 1026.8 0.0000 0.0000
13:34 8.1 -0.3 55 75 0.6 1.1 1026.7 0.0000 0.0000
13:44 8.2 0.9 60 42 0.6 1.4 1026.7 0.0000 0.0000
13:53 8.4 1.5 62 32 0.8 1.7 1026.7 0.0000 0.0000
14:04 8.7 1.6 61 12 0.8 1.7 1026.6 0.0000 0.0000
14:14 8.7 1.6 61 42 0.6 1.4 1026.6 0.0000 0.0000
14:24 8.9 1.3 59 30 0.6 1.4 1026.6 0.0000 0.0000
14:34 9.3 1 56 27 1.1 2.2 1026.5 0.0000 0.0000
14:44 9.6 1 55 29 1.4 2.5 1026.5 0.0000 0.0000
14:54 10 0.6 52 50 1.4 3.1 1026.2 0.0000 0.0000
15:04 10.2 0.5 51 43 1.7 3.1 1026.1 0.0000 0.0000
15:15 10.4 0.4 50 51 1.1 2.2 1026.1 0.0000 0.0000
15:25 10.6 0.6 50 38 1.7 2.8 1026 0.0000 0.0000
15:34 10.7 1 51 42 1.4 2.2 1026 0.0000 0.0000
15:45 10.7 1 51 49 1.4 1.9 1026 0.0000 0.0000
15:55 10.8 0.5 49 57 1.7 2.8 1025.9 0.0000 0.0000
16:05 10.9 0.6 49 52 1.7 2.8 1025.8 0.0000 0.0000
16:15 11 1.3 51 48 1.1 1.9 1025.9 0.0000 0.0000
16:25 10.9 1.4 52 43 1.1 1.7 1025.8 0.0000 0.0000
16:35 10.5 1.9 55 335 0.3 1.1 1025.8 0.0000 0.0000
16:45 9.9 2 58 242 0.6 1.4 1025.8 0.0000 0.0000
16:55 9.4 2 60 233 0.6 1.4 1025.8 0.0000 0.0000
17:06 9 2.1 62 229 1.1 2.2 1025.8 0.0000 0.0000
17:15 8.6 2 63 213 0.8 1.4 1025.8 0.0000 0.0000
17:25 8.2 1.6 63 192 0.8 1.4 1025.8 0.0000 0.0000
17:36 7.8 2.1 67 137 0.6 1.7 1025.9 0.0000 0.0000
17:46 7.6 2.1 68 133 1.7 2.5 1025.8 0.0000 0.0000
17:56 7.3 2 69 137 1.9 3.1 1025.9 0.0000 0.0000
18:06 6.9 1.8 70 135 1.7 3.3 1025.9 0.0000 0.0000
18:16 6.5 1.6 71 134 1.7 3.3 1025.9 0.0000 0.0000
18:26 6.2 1.3 71 136 1.9 3.6 1025.9 0.0000 0.0000
18:36 5.9 1.2 72 135 2.2 3.9 1026 0.0000 0.0000
18:47 5.7 1.1 72 135 1.9 3.3 1026 0.0000 0.0000
18:56 5.4 1 73 138 1.9 3.6 1026.1 0.0000 0.0000
19:06 5.3 0.9 73 138 2.2 3.9 1026 0.0000 0.0000
19:16 5.1 0.9 74 136 2.5 4.2 1026 0.0000 0.0000
19:27 5 0.6 73 138 1.9 3.9 1026 0.0000 0.0000
19:37 4.8 0.6 74 139 2.2 3.9 1026 0.0000 0.0000
19:46 4.6 0.6 75 143 1.7 2.8 1026 0.0000 0.0000
19:57 4.5 0.5 75 146 1.4 3.1 1026 0.0000 0.0000
20:07 4.4 0.4 75 140 2.2 3.9 1025.9 0.0000 0.0000
20:17 4.4 0.4 75 136 2.2 3.9 1025.9 0.0000 0.0000
20:27 4.4 0.4 75 135 2.5 3.9 1025.8 0.0000 0.0000
20:37 4.2 0.2 75 142 2.2 3.6 1025.8 0.0000 0.0000
20:47 4.1 0.3 76 139 2.2 3.6 1025.5 0.0000 0.0000
20:57 3.9 0.2 77 142 1.9 3.3 1025.4 0.0000 0.0000
21:08 3.8 0 76 136 1.9 3.3 1025.4 0.0000 0.0000
21:17 3.8 0 76 138 1.7 3.3 1025.3 0.0000 0.0000
21:27 3.8 0.1 77 136 2.5 4.4 1025.3 0.0000 0.0000
21:37 3.7 0 77 135 2.2 3.9 1025.3 0.0000 0.0000
21:48 3.7 -0.1 76 137 2.5 3.6 1025.3 0.0000 0.0000
21:58 3.5 -0.3 76 135 1.9 3.6 1025.3 0.0000 0.0000
22:07 3.5 -0.3 76 141 1.7 3.1 1025.3 0.0000 0.0000
22:18 3.4 -0.2 77 135 1.9 3.1 1025.3 0.0000 0.0000
22:28 3.4 -0.2 77 142 1.7 3.3 1025.3 0.0000 0.0000
22:38 3.4 -0.2 77 142 1.7 3.1 1025.2 0.0000 0.0000
22:48 3.4 -0.2 77 137 1.7 3.6 1025.2 0.0000 0.0000
22:58 3.4 -0.4 76 152 1.4 2.5 1025.2 0.0000 0.0000
23:08 3.5 -0.3 76 139 1.9 3.1 1025.2 0.0000 0.0000
23:18 3.6 -0.2 76 136 2.2 3.6 1025.2 0.0000 0.0000
23:29 3.8 -0.2 75 138 1.9 3.9 1025.2 0.0000 0.0000
23:38 3.9 -0.3 74 140 1.7 4.4 1025.1 0.0000 0.0000
23:48 3.9 -0.3 74 139 1.9 3.1 1025.1 0.0000 0.0000
23:58 4 -0.2 74 132 2.2 3.9 1025.1 0.0000

DAY STATISTIC

2021-10-24
TEMPERATURE
AVERAGE
4.1
HIGH
11.0
16:15
LOW
0.5
07:41
PRESSURE
AVERAGE
1026.2
HIGH
1027.2
09:42
LOW
1025.1
23:38
DEWPOINT
AVERAGE
-0.8
HIGH
2.1
17:06
LOW
-3.2
08:31
HUMIDITY
AVERAGE
71
HIGH
93
00:08
LOW
49
15:55
WIND SPEED
AVERAGE
1.5
HIGH
2.5
02:59
WIND GUST
AVERAGE
2.6
HIGH
4.4
21:27
WIND DIRECTION
PREVAILING
SE
66.9%
N
0.7
NE
17.6
E
9.2
SE
66.9
S
2.1
SW
2.8
W
0.0
NW
0.7
PRECIPITATION
RAIN HOUR
0.0
RAIN DAY
0.0
TEMPERATURE (°C)
LOW
0.5
HIGH
11.0
AVERAGE
4.1
PRESSURE (hpa)
LOW
1025.1
HIGH
1027.2
AVERAGE
1026.2
DEVICE